Time;durP1;ratioP1;P1;durP2;ratioP2;P2;SDS_P1;SDS_P2;PMS_P1;PMS_P2;Temp;Humidity;BMP_temperature;BMP_pressure;BME280_temperature;BME280_humidity;BME280_pressure;Samples;Min_cycle;Max_cycle;Signal;HPM_P1;HPM_P2
2023/03/07 00:00:49;;;;;;;17.13;10.45;;;;;;;2.86;100.00;99812.25;5054659;28;20036;-63
2023/03/07 00:03:15;;;;;;;15.52;9.95;;;;;;;2.82;100.00;99816.31;5054860;28;20111;-63
2023/03/07 00:05:43;;;;;;;15.40;9.43;;;;;;;2.77;100.00;99818.66;5055233;28;20127;-63
2023/03/07 00:08:09;;;;;;;14.13;10.32;;;;;;;2.75;100.00;99810.09;5054327;28;20033;-63
2023/03/07 00:10:34;;;;;;;15.98;10.38;;;;;;;2.72;100.00;99820.13;5055048;28;20492;-62
2023/03/07 00:13:00;;;;;;;13.80;9.93;;;;;;;2.69;100.00;99819.13;5054995;28;20033;-62
2023/03/07 00:15:25;;;;;;;14.48;10.27;;;;;;;2.66;100.00;99813.88;5054183;28;20115;-62
2023/03/07 00:17:50;;;;;;;13.02;9.73;;;;;;;2.63;100.00;99815.50;5055089;28;20044;-62
2023/03/07 00:20:16;;;;;;;12.93;9.38;;;;;;;2.60;100.00;99809.41;5054399;28;20100;-62
2023/03/07 00:22:42;;;;;;;18.30;8.05;;;;;;;2.58;100.00;99808.47;5054062;28;20029;-62
2023/03/07 00:25:09;;;;;;;10.88;6.93;;;;;;;2.56;100.00;99803.31;5054464;28;20491;-62
2023/03/07 00:27:34;;;;;;;9.60;6.55;;;;;;;2.51;100.00;99799.69;5054845;28;20036;-62
2023/03/07 00:30:01;;;;;;;12.43;6.60;;;;;;;2.46;100.00;99788.44;5053568;28;20025;-62
2023/03/07 00:32:26;;;;;;;11.57;6.20;;;;;;;2.43;100.00;99801.03;5054666;28;20518;-62
2023/03/07 00:34:53;;;;;;;8.85;5.57;;;;;;;2.38;100.00;99802.47;5054652;28;20024;-62
2023/03/07 00:37:18;;;;;;;8.02;5.40;;;;;;;2.34;100.00;99788.75;5053626;28;20067;-62
2023/03/07 00:39:43;;;;;;;8.45;4.68;;;;;;;2.29;100.00;99793.63;5054823;28;20017;-62
2023/03/07 00:42:09;;;;;;;9.45;4.95;;;;;;;2.26;100.00;99793.50;5054423;28;20025;-62
2023/03/07 00:44:34;;;;;;;8.05;4.80;;;;;;;2.24;100.00;99799.31;5053915;28;20033;-62
2023/03/07 00:47:00;;;;;;;11.57;4.68;;;;;;;2.21;100.00;99797.50;5054270;28;20025;-62
2023/03/07 00:49:25;;;;;;;7.95;4.13;;;;;;;2.20;100.00;99789.81;5054354;28;20029;-62
2023/03/07 00:51:51;;;;;;;7.55;4.30;;;;;;;2.21;100.00;99791.50;5053629;28;20032;-62
2023/03/07 00:54:16;;;;;;;8.05;4.60;;;;;;;2.21;100.00;99786.44;5054191;28;20075;-62
2023/03/07 00:56:42;;;;;;;9.55;4.47;;;;;;;2.19;100.00;99785.50;5054347;28;20025;-62
2023/03/07 00:59:08;;;;;;;9.40;4.43;;;;;;;2.21;100.00;99789.88;5053160;28;20029;-62
2023/03/07 01:01:33;;;;;;;7.07;4.30;;;;;;;2.22;100.00;99778.00;5054145;28;20103;-62
2023/03/07 01:03:59;;;;;;;8.48;5.00;;;;;;;2.21;100.00;99784.78;5052812;28;20485;-62
2023/03/07 01:06:27;;;;;;;8.25;4.78;;;;;;;2.20;100.00;99777.09;5053560;28;20524;-62
2023/03/07 01:08:54;;;;;;;7.72;5.03;;;;;;;2.24;100.00;99778.97;5054152;28;20110;-62
2023/03/07 01:11:19;;;;;;;10.73;5.63;;;;;;;2.25;100.00;99770.53;5053285;28;20053;-62
2023/03/07 01:13:45;;;;;;;10.48;6.50;;;;;;;2.24;100.00;99774.75;5054110;28;20057;-62
2023/03/07 01:16:15;;;;;;;11.95;6.97;;;;;;;2.27;100.00;99774.00;5053661;28;20469;-62
2023/03/07 01:18:41;;;;;;;12.45;7.10;;;;;;;2.32;100.00;99774.22;5053136;28;20025;-62
2023/03/07 01:21:31;;;;;;;13.43;7.85;;;;;;;2.37;100.00;99770.22;5053640;28;20021;-62
2023/03/07 01:23:57;;;;;;;11.15;7.47;;;;;;;2.38;100.00;99766.88;5050550;28;20179;-63
2023/03/07 01:26:30;;;;;;;12.95;7.55;;;;;;;2.39;100.00;99768.59;5053218;28;20112;-62
2023/03/07 01:28:57;;;;;;;13.63;8.77;;;;;;;2.39;100.00;99759.31;5053426;28;20473;-62
2023/03/07 01:31:23;;;;;;;14.60;9.32;;;;;;;2.40;100.00;99755.97;5053354;28;20063;-61
2023/03/07 01:33:50;;;;;;;16.85;9.85;;;;;;;2.41;100.00;99756.84;5052740;28;20033;-62
2023/03/07 01:36:19;;;;;;;15.13;9.80;;;;;;;2.39;100.00;99753.34;5053397;28;20373;-62
2023/03/07 01:38:48;;;;;;;14.95;10.20;;;;;;;2.41;100.00;99746.66;5053550;28;20107;-62
2023/03/07 01:41:14;;;;;;;15.52;10.38;;;;;;;2.43;100.00;99748.47;5052352;28;20043;-62
2023/03/07 01:43:40;;;;;;;17.77;12.15;;;;;;;2.45;100.00;99736.72;5053299;28;20029;-62
2023/03/07 01:46:17;;;;;;;18.05;12.25;;;;;;;2.49;100.00;99742.78;5052508;28;20032;-61
2023/03/07 01:49:08;;;;;;;19.25;12.50;;;;;;;2.53;100.00;99736.16;5053407;28;20029;-62
2023/03/07 01:51:35;;;;;;;19.50;13.20;;;;;;;2.52;100.00;99735.31;5053325;28;20029;-62
2023/03/07 01:54:01;;;;;;;20.70;14.30;;;;;;;2.57;100.00;99736.38;5052121;28;20104;-62
2023/03/07 01:56:27;;;;;;;22.23;15.18;;;;;;;2.58;100.00;99733.03;5053070;28;20387;-62
2023/03/07 01:58:54;;;;;;;21.58;15.98;;;;;;;2.59;100.00;99727.13;5053072;28;20029;-62
2023/03/07 02:01:21;;;;;;;23.83;16.42;;;;;;;2.62;100.00;99729.81;5052512;28;20032;-63
2023/03/07 02:04:35;;;;;;;25.85;17.95;;;;;;;2.67;100.00;99724.06;5052739;28;20049;-62
2023/03/07 02:07:02;;;;;;;28.70;17.60;;;;;;;2.64;100.00;99720.56;5030552;28;20041;-63
2023/03/07 02:09:30;;;;;;;28.15;19.25;;;;;;;2.65;100.00;99721.44;5030210;28;20033;-62
2023/03/07 02:11:55;;;;;;;28.38;18.92;;;;;;;2.67;100.00;99724.91;5042588;28;20040;-62
2023/03/07 02:14:21;;;;;;;33.75;21.10;;;;;;;2.66;100.00;99725.75;5052209;28;20021;-62
2023/03/07 02:16:47;;;;;;;29.00;20.13;;;;;;;2.66;100.00;99717.22;5052822;28;20037;-63
2023/03/07 02:19:29;;;;;;;29.50;20.45;;;;;;;2.69;100.00;99717.38;5051588;28;20029;-63
2023/03/07 02:22:02;;;;;;;31.70;20.55;;;;;;;2.68;100.00;99718.16;5051882;28;20021;-63
2023/03/07 02:24:42;;;;;;;29.40;20.25;;;;;;;2.68;100.00;99705.44;5052932;28;20032;-63
2023/03/07 02:27:07;;;;;;;33.50;20.20;;;;;;;2.67;100.00;99706.25;5052513;28;20025;-63
2023/03/07 02:29:33;;;;;;;28.45;18.85;;;;;;;2.66;100.00;99705.38;5051806;28;20385;-63
2023/03/07 02:31:58;;;;;;;32.08;21.10;;;;;;;2.68;100.00;99708.00;5052500;28;20028;-63
2023/03/07 02:34:26;;;;;;;30.13;19.88;;;;;;;2.68;100.00;99705.44;5052817;28;20025;-63
2023/03/07 02:36:53;;;;;;;;;;;;;;;2.72;100.00;99699.69;5052319;28;20109;-63
2023/03/07 02:39:21;;;;;;;29.48;18.98;;;;;;;2.68;100.00;99695.28;5052547;28;19912;-63
2023/03/07 02:41:47;;;;;;;29.48;19.73;;;;;;;2.64;100.00;99692.56;5052560;28;20508;-63
2023/03/07 02:44:13;;;;;;;31.58;20.02;;;;;;;2.64;100.00;99694.25;5051391;28;20189;-62
2023/03/07 02:46:38;;;;;;;28.90;17.85;;;;;;;2.62;100.00;99686.56;5052753;28;20024;-62
2023/03/07 02:49:04;;;;;;;28.95;17.15;;;;;;;2.61;100.00;99684.81;5052398;28;20380;-62
2023/03/07 02:51:30;;;;;;;28.75;16.83;;;;;;;2.61;100.00;99695.00;5051658;28;20380;-62
2023/03/07 02:53:56;;;;;;;25.27;16.40;;;;;;;2.60;100.00;99688.16;5052171;28;20029;-62
2023/03/07 02:56:21;;;;;;;27.02;16.45;;;;;;;2.60;100.00;99687.31;5051802;28;20083;-62
2023/03/07 02:58:46;;;;;;;23.30;15.57;;;;;;;2.57;100.00;99693.13;5052415;28;20394;-62
2023/03/07 03:01:12;;;;;;;24.92;15.73;;;;;;;2.54;100.00;99682.81;5052272;28;20088;-62
2023/03/07 03:03:37;;;;;;;22.95;15.38;;;;;;;2.55;100.00;99687.09;5051537;28;20188;-62
2023/03/07 03:06:03;;;;;;;25.63;15.38;;;;;;;2.54;100.00;99685.34;5052079;28;20427;-62
2023/03/07 03:08:29;;;;;;;25.50;16.08;;;;;;;2.54;100.00;99687.91;5052433;28;20028;-62
2023/03/07 03:10:55;;;;;;;26.13;15.93;;;;;;;2.52;100.00;99684.44;5051267;28;20526;-62
2023/03/07 03:13:21;;;;;;;28.52;16.88;;;;;;;2.51;100.00;99682.69;5052041;28;20051;-62
2023/03/07 03:15:46;;;;;;;29.75;17.27;;;;;;;2.51;100.00;99682.69;5052500;28;20032;-62
2023/03/07 03:18:12;;;;;;;26.27;16.77;;;;;;;2.52;100.00;99678.47;5051007;28;20021;-62
2023/03/07 03:20:41;;;;;;;27.25;17.23;;;;;;;2.51;100.00;99676.75;5052312;28;20036;-62
2023/03/07 03:23:06;;;;;;;25.38;16.80;;;;;;;2.51;100.00;99677.59;5051940;28;20025;-62
2023/03/07 03:25:32;;;;;;;29.40;17.25;;;;;;;2.51;100.00;99675.06;5051391;28;20032;-62
2023/03/07 03:27:57;;;;;;;26.33;16.70;;;;;;;2.50;100.00;99680.94;5051792;28;20025;-62
2023/03/07 03:30:22;;;;;;;27.38;17.35;;;;;;;2.51;100.00;99671.66;5053840;28;20372;-62
2023/03/07 03:32:47;;;;;;;28.27;16.67;;;;;;;2.49;100.00;99674.13;5055223;28;20078;-62
2023/03/07 03:35:13;;;;;;;25.52;16.58;;;;;;;2.49;100.00;99674.13;5055655;28;20051;-62
2023/03/07 03:37:39;;;;;;;25.60;16.10;;;;;;;2.49;100.00;99674.13;5055908;28;20385;-62
2023/03/07 03:40:12;;;;;;;28.38;17.08;;;;;;;2.49;100.00;99678.34;5054689;28;20028;-62
2023/03/07 03:42:39;;;;;;;28.17;17.02;;;;;;;2.49;100.00;99674.13;5055708;28;20033;-62
2023/03/07 03:45:05;;;;;;;24.70;16.02;;;;;;;2.46;100.00;99666.38;5055493;28;20029;-62
2023/03/07 03:47:30;;;;;;;22.95;15.27;;;;;;;2.46;100.00;99656.19;5054811;28;20082;-62
2023/03/07 03:49:55;;;;;;;26.55;16.05;;;;;;;2.48;100.00;99657.13;5055340;28;20028;-62
2023/03/07 03:52:22;;;;;;;25.40;16.20;;;;;;;2.46;100.00;99651.09;5055474;28;20033;-62
2023/03/07 03:54:47;;;;;;;24.95;16.73;;;;;;;2.44;100.00;99645.06;5054728;28;20040;-62
2023/03/07 03:57:16;;;;;;;23.33;15.15;;;;;;;2.43;100.00;99644.22;5054964;28;20388;-62
2023/03/07 03:59:42;;;;;;;21.63;14.57;;;;;;;2.43;100.00;99644.22;5054601;28;20051;-62
2023/03/07 04:02:07;;;;;;;23.30;14.18;;;;;;;2.40;100.00;99638.13;5055026;28;20064;-62
2023/03/07 04:04:32;;;;;;;24.73;14.15;;;;;;;2.40;100.00;99640.66;5055223;28;20045;-61
2023/03/07 04:06:58;;;;;;;23.52;14.52;;;;;;;2.38;100.00;99632.97;5054130;28;20145;-62
2023/03/07 04:09:23;;;;;;;23.35;14.57;;;;;;;2.38;100.00;99629.56;5055192;28;20075;-61
2023/03/07 04:11:48;;;;;;;23.17;13.82;;;;;;;2.38;100.00;99624.50;5055200;28;20105;-62
2023/03/07 04:14:13;;;;;;;20.38;13.38;;;;;;;2.36;100.00;99616.78;5054256;28;20036;-61
2023/03/07 04:16:39;;;;;;;18.70;12.70;;;;;;;2.35;100.00;99621.78;5055253;28;20104;-62
2023/03/07 04:19:04;;;;;;;18.45;12.05;;;;;;;2.32;100.00;99619.13;5054786;28;20025;-62
2023/03/07 04:21:29;;;;;;;17.52;11.73;;;;;;;2.30;100.00;99612.31;5054199;28;20025;-62
2023/03/07 04:23:57;;;;;;;17.45;10.75;;;;;;;2.29;100.00;99613.09;5054703;28;20111;-62
2023/03/07 04:26:22;;;;;;;17.30;11.00;;;;;;;2.29;100.00;99605.47;5054908;28;20021;-62
2023/03/07 04:28:48;;;;;;;21.58;13.05;;;;;;;2.28;100.00;99607.97;5054209;28;20090;-62
2023/03/07 04:31:19;;;;;;;18.45;12.73;;;;;;;2.26;100.00;99607.91;5054415;28;20396;-62
2023/03/07 04:33:44;;;;;;;17.55;11.80;;;;;;;2.27;100.00;99596.94;5054587;28;20495;-61
2023/03/07 04:36:10;;;;;;;22.05;14.00;;;;;;;2.26;100.00;99600.28;5053605;28;20018;-61
2023/03/07 04:38:37;;;;;;;21.75;13.63;;;;;;;2.27;100.00;99599.47;5054545;28;20056;-61
2023/03/07 04:41:06;;;;;;;22.02;13.80;;;;;;;2.29;100.00;99602.06;5054010;28;20024;-61
2023/03/07 04:43:31;;;;;;;20.50;13.32;;;;;;;2.28;100.00;99602.88;5053688;28;20025;-61
2023/03/07 04:45:57;;;;;;;23.00;13.77;;;;;;;2.27;100.00;99596.03;5054270;28;20036;-61
2023/03/07 04:48:22;;;;;;;20.35;13.68;;;;;;;2.28;100.00;99591.03;5054555;28;20052;-61
2023/03/07 04:50:49;;;;;;;19.55;12.10;;;;;;;2.28;100.00;99593.56;5053807;28;20036;-61
2023/03/07 04:53:16;;;;;;;21.23;13.37;;;;;;;2.29;100.00;99590.22;5053992;28;20476;-61
2023/03/07 04:55:41;;;;;;;19.42;12.88;;;;;;;2.30;100.00;99597.06;5054573;28;20283;-61
2023/03/07 04:58:11;;;;;;;20.70;13.27;;;;;;;2.30;100.00;99589.44;5053422;28;20028;-61
2023/03/07 05:00:37;;;;;;;23.08;12.63;;;;;;;2.30;100.00;99594.50;5054459;28;20024;-61
2023/03/07 05:03:02;;;;;;;24.65;12.40;;;;;;;2.32;100.00;99584.41;5053002;28;20025;-61
2023/03/07 05:05:28;;;;;;;21.83;12.82;;;;;;;2.30;100.00;99580.94;5054230;28;20115;-61
2023/03/07 05:07:53;;;;;;;23.20;13.63;;;;;;;2.32;100.00;99581.00;5053954;28;20373;-61
2023/03/07 05:10:18;;;;;;;24.38;13.30;;;;;;;2.33;100.00;99580.19;5053159;28;20090;-61
2023/03/07 05:12:43;;;;;;;24.25;13.60;;;;;;;2.32;100.00;99579.31;5054313;28;20392;-61
2023/03/07 05:15:09;;;;;;;22.65;14.02;;;;;;;2.33;100.00;99585.28;5053724;28;20020;-61
2023/03/07 05:17:35;;;;;;;25.33;13.93;;;;;;;2.30;100.00;99579.25;5053201;28;20067;-61
2023/03/07 05:20:00;;;;;;;26.35;13.00;;;;;;;2.31;100.00;99569.94;5053768;28;20104;-61
2023/03/07 05:22:25;;;;;;;31.30;14.93;;;;;;;2.30;100.00;99569.09;5053739;28;20167;-61
2023/03/07 05:24:51;;;;;;;25.80;14.90;;;;;;;2.30;100.00;99574.16;5053213;28;20025;-61
2023/03/07 05:27:16;;;;;;;24.67;14.77;;;;;;;2.33;100.00;99575.13;5053332;28;20092;-61
2023/03/07 05:29:41;;;;;;;27.33;14.93;;;;;;;2.30;100.00;99566.53;5053846;28;20029;-61
2023/03/07 05:32:07;;;;;;;29.50;15.05;;;;;;;2.29;100.00;99564.78;5052426;28;20125;-61
2023/03/07 05:34:32;;;;;;;28.60;15.63;;;;;;;2.28;100.00;99568.13;5053644;28;20362;-61
2023/03/07 05:36:57;;;;;;;27.50;14.85;;;;;;;2.25;100.00;99557.84;5053217;28;20037;-61
2023/03/07 05:39:24;;;;;;;28.98;15.55;;;;;;;2.24;100.00;99566.28;5052871;28;20028;-61
2023/03/07 05:41:49;;;;;;;23.83;14.88;;;;;;;2.23;100.00;99564.53;5053752;28;20028;-61
2023/03/07 05:44:14;;;;;;;22.90;13.88;;;;;;;2.23;100.00;99564.53;5053233;28;20382;-61
2023/03/07 05:46:40;;;;;;;31.92;15.50;;;;;;;2.22;100.00;99562.81;5052663;28;20029;-61
2023/03/07 05:49:05;;;;;;;29.42;14.45;;;;;;;2.21;100.00;99567.81;5053015;28;20527;-61
2023/03/07 05:51:30;;;;;;;29.38;14.68;;;;;;;2.20;100.00;99573.72;5053307;28;20021;-61
2023/03/07 05:53:56;;;;;;;21.98;14.13;;;;;;;2.17;100.00;99569.38;5051940;28;20477;-61
2023/03/07 05:56:21;;;;;;;20.15;13.52;;;;;;;2.16;100.00;99560.00;5053160;28;20113;-61
2023/03/07 05:58:46;;;;;;;23.58;12.48;;;;;;;2.14;100.00;99561.59;5053271;28;20515;-61
2023/03/07 06:01:11;;;;;;;24.60;13.65;;;;;;;2.14;100.00;99561.59;5052119;28;20131;-61
2023/03/07 06:03:37;;;;;;;22.25;12.82;;;;;;;2.12;100.00;99558.16;5052885;28;20045;-61
2023/03/07 06:06:02;;;;;;;23.35;12.80;;;;;;;2.10;100.00;99555.50;5052693;28;20025;-61
2023/03/07 06:08:28;;;;;;;23.00;12.45;;;;;;;2.12;100.00;99563.22;5052167;28;20025;-61
2023/03/07 06:10:53;;;;;;;20.83;12.43;;;;;;;2.11;100.00;99564.88;5052767;28;20411;-61
2023/03/07 06:13:21;;;;;;;21.08;13.63;;;;;;;2.10;100.00;99567.38;5052147;28;20033;-61
2023/03/07 06:15:51;;;;;;;26.15;14.00;;;;;;;2.10;100.00;99562.28;5052979;28;20385;-61
2023/03/07 06:18:17;;;;;;;23.88;13.82;;;;;;;2.07;100.00;99559.63;5052543;28;20029;-60
2023/03/07 06:20:42;;;;;;;22.67;13.50;;;;;;;2.05;100.00;99563.75;5052015;28;20314;-61
2023/03/07 06:23:07;;;;;;;21.77;12.90;;;;;;;2.02;100.00;99561.97;5052322;28;20033;-61
2023/03/07 06:25:33;;;;;;;18.15;12.10;;;;;;;1.97;100.00;99564.28;5052801;28;20428;-61
2023/03/07 06:28:00;;;;;;;21.20;12.98;;;;;;;1.92;100.00;99562.38;5051787;28;20483;-60
2023/03/07 06:30:26;;;;;;;22.45;14.38;;;;;;;1.90;100.00;99574.13;5052724;28;20535;-61
2023/03/07 06:32:51;;;;;;;25.38;14.05;;;;;;;1.90;100.00;99575.00;5052648;28;20037;-61
2023/03/07 06:35:17;;;;;;;22.92;13.90;;;;;;;1.85;100.00;99578.13;5051536;28;20044;-61
2023/03/07 06:37:42;;;;;;;23.05;13.85;;;;;;;1.78;100.00;99574.44;5052729;28;20403;-61
2023/03/07 06:40:09;;;;;;;22.50;13.50;;;;;;;1.73;100.00;99575.91;5052538;28;20469;-61
2023/03/07 06:42:35;;;;;;;23.13;14.95;;;;;;;1.61;100.00;99574.59;5051911;28;20044;-61
2023/03/07 06:45:00;;;;;;;23.50;15.27;;;;;;;1.55;100.00;99568.34;5052363;28;20096;-61
2023/03/07 06:47:25;;;;;;;23.38;15.30;;;;;;;1.47;100.00;99578.16;5052556;28;20032;-60
2023/03/07 06:49:51;;;;;;;21.27;14.52;;;;;;;1.40;100.00;99576.16;5052043;28;20091;-60
2023/03/07 06:52:16;;;;;;;25.52;14.80;;;;;;;1.32;100.00;99565.66;5052601;28;20036;-61
2023/03/07 06:54:41;;;;;;;22.63;15.18;;;;;;;1.26;100.00;99565.34;5052396;28;20029;-61
2023/03/07 06:57:07;;;;;;;21.83;15.27;;;;;;;1.23;100.00;99568.63;5051603;28;20478;-61
2023/03/07 06:59:32;;;;;;;25.05;15.98;;;;;;;1.18;100.00;99565.00;5052576;28;20029;-61
2023/03/07 07:02:01;;;;;;;24.20;15.85;;;;;;;1.15;100.00;99580.09;5052078;28;20118;-61
2023/03/07 07:04:26;;;;;;;23.17;15.82;;;;;;;1.11;100.00;99588.34;5051377;28;20049;-61
2023/03/07 07:06:52;;;;;;;25.88;16.63;;;;;;;1.08;100.00;99589.06;5056155;28;20179;-61
2023/03/07 07:09:17;;;;;;;27.30;17.08;;;;;;;1.05;100.00;99588.06;5056170;28;20024;-61
2023/03/07 07:11:42;;;;;;;26.67;17.90;;;;;;;0.95;100.00;99587.63;5055554;28;20028;-61
2023/03/07 07:14:07;;;;;;;32.30;17.08;;;;;;;0.94;100.00;99598.59;5055643;28;20111;-61
2023/03/07 07:16:35;;;;;;;25.10;16.08;;;;;;;0.86;100.00;99593.94;5055996;28;20029;-61
2023/03/07 07:19:00;;;;;;;26.92;16.60;;;;;;;0.82;100.00;99592.91;5055751;28;20017;-61
2023/03/07 07:21:25;;;;;;;28.60;17.02;;;;;;;0.79;100.00;99585.16;5055900;28;20051;-61
2023/03/07 07:23:51;;;;;;;28.58;17.92;;;;;;;0.73;100.00;99577.25;5055148;28;20079;-61
2023/03/07 07:26:16;;;;;;;24.30;16.15;;;;;;;0.67;100.00;99585.41;5055781;28;20074;-61
2023/03/07 07:28:41;;;;;;;27.25;17.58;;;;;;;0.62;100.00;99577.59;5056109;28;20024;-61
2023/03/07 07:31:06;;;;;;;29.30;17.38;;;;;;;0.62;100.00;99592.81;5054900;28;20035;-61
2023/03/07 07:33:32;;;;;;;29.90;17.95;;;;;;;0.64;100.00;99593.75;5055730;28;20053;-61
2023/03/07 07:35:57;;;;;;;32.95;19.40;;;;;;;0.64;100.00;99592.88;5055430;28;20420;-61
2023/03/07 07:38:23;;;;;;;37.20;20.83;;;;;;;0.66;100.00;99598.91;5055093;28;20104;-61
2023/03/07 07:40:48;;;;;;;34.20;21.05;;;;;;;0.63;100.00;99609.78;5056104;28;20067;-61
2023/03/07 07:43:15;;;;;;;35.05;20.60;;;;;;;0.62;100.00;99623.25;5055375;28;20083;-61
2023/03/07 07:45:40;;;;;;;33.05;20.08;;;;;;;0.58;100.00;99626.44;5054831;28;20013;-61
2023/03/07 07:48:05;;;;;;;34.05;20.55;;;;;;;0.56;100.00;99638.16;5055286;28;20075;-61
2023/03/07 07:50:31;;;;;;;35.90;21.85;;;;;;;0.55;100.00;99635.53;5055499;28;20052;-62
2023/03/07 07:52:56;;;;;;;40.72;22.77;;;;;;;0.53;100.00;99642.19;5054289;28;20041;-61
2023/03/07 07:55:23;;;;;;;42.25;24.33;;;;;;;0.53;100.00;99653.22;5055638;28;20108;-62
2023/03/07 07:57:49;;;;;;;45.97;27.40;;;;;;;0.57;100.00;99646.59;5055494;28;20104;-62
2023/03/07 08:00:19;;;;;;;49.65;30.83;;;;;;;0.58;100.00;99639.09;5054355;28;20480;-62
2023/03/07 08:02:48;;;;;;;49.33;34.95;;;;;;;0.54;100.00;99644.78;5055342;28;20070;-62
2023/03/07 08:05:14;;;;;;;44.38;31.75;;;;;;;0.58;100.00;99643.28;5054697;28;20045;-62
2023/03/07 08:07:39;;;;;;;46.60;34.95;;;;;;;0.57;100.00;99650.03;5054643;28;20024;-62
2023/03/07 08:10:05;;;;;;;47.50;34.33;;;;;;;0.59;100.00;99650.09;5054782;28;20021;-62
2023/03/07 08:12:30;;;;;;;47.95;35.65;;;;;;;0.60;100.00;99651.84;5054914;28;20116;-62
2023/03/07 08:14:55;;;;;;;46.85;34.38;;;;;;;0.60;100.00;99652.72;5054059;28;20048;-61
2023/03/07 08:17:21;;;;;;;43.15;31.90;;;;;;;0.57;100.00;99654.22;5053650;28;20108;-62
2023/03/07 08:19:46;;;;;;;43.10;30.67;;;;;;;0.51;100.00;99654.78;5055189;28;20032;-62
2023/03/07 08:22:11;;;;;;;38.55;27.73;;;;;;;0.46;100.00;99661.28;5054038;28;20445;-62
2023/03/07 08:24:37;;;;;;;36.03;24.38;;;;;;;0.37;100.00;99660.81;5055216;28;20033;-61
2023/03/07 08:27:02;;;;;;;31.10;21.10;;;;;;;0.25;100.00;99656.88;5053973;28;20396;-62
2023/03/07 08:29:27;;;;;;;31.02;22.58;;;;;;;0.15;100.00;99682.50;5054776;28;20110;-62
2023/03/07 08:31:53;;;;;;;30.23;20.60;;;;;;;0.06;100.00;99664.31;5054838;28;20487;-61
2023/03/07 08:34:19;;;;;;;30.80;21.08;;;;;;;0.03;100.00;99680.22;5053848;28;20039;-61
2023/03/07 08:36:45;;;;;;;30.42;21.20;;;;;;;-0.01;100.00;99665.66;5054801;28;20369;-62
2023/03/07 08:39:11;;;;;;;25.20;18.33;;;;;;;-0.08;100.00;99682.19;5054284;28;20487;-62
2023/03/07 08:41:37;;;;;;;26.30;18.38;;;;;;;-0.09;100.00;99675.38;5053838;28;20040;-62
2023/03/07 08:44:02;;;;;;;26.05;17.25;;;;;;;-0.24;100.00;99666.97;5054112;28;20424;-61
2023/03/07 08:46:28;;;;;;;26.73;17.80;;;;;;;-0.23;100.00;99668.72;5054579;28;20025;-62
2023/03/07 08:48:53;;;;;;;26.55;17.40;;;;;;;-0.19;100.00;99665.53;5053963;28;20115;-62
2023/03/07 08:51:18;;;;;;;30.52;18.17;;;;;;;-0.11;100.00;99666.81;5054518;28;20033;-62
2023/03/07 08:53:45;;;;;;;35.92;20.45;;;;;;;0.08;100.00;99672.84;5054435;28;20424;-61
2023/03/07 08:56:13;;;;;;;33.03;20.38;;;;;;;0.22;100.00;99671.91;5053080;28;20391;-62
2023/03/07 08:58:39;;;;;;;28.65;18.00;;;;;;;0.30;100.00;99663.03;5054441;28;20044;-62
2023/03/07 09:01:05;;;;;;;27.60;18.08;;;;;;;0.38;100.00;99663.44;5053849;28;20095;-62
2023/03/07 09:03:31;;;;;;;27.40;17.63;;;;;;;0.47;100.00;99663.88;5053175;28;20041;-62
2023/03/07 09:05:57;;;;;;;30.80;19.58;;;;;;;0.60;100.00;99667.91;5054060;28;20021;-62
2023/03/07 09:08:22;;;;;;;26.05;16.60;;;;;;;0.76;100.00;99654.38;5054255;28;20104;-62
2023/03/07 09:10:47;;;;;;;24.02;17.05;;;;;;;0.76;100.00;99666.16;5053191;28;20382;-61
2023/03/07 09:13:13;;;;;;;26.52;19.80;;;;;;;0.74;100.00;99657.63;5053612;28;20036;-62
2023/03/07 09:15:39;;;;;;;35.30;25.98;;;;;;;0.75;100.00;99661.88;5053860;28;20025;-62
2023/03/07 09:18:06;;;;;;;32.15;23.75;;;;;;;0.80;100.00;99662.97;5052684;28;20117;-63
2023/03/07 09:20:31;;;;;;;29.92;22.42;;;;;;;0.76;100.00;99666.16;5053996;28;20029;-62
2023/03/07 09:22:57;;;;;;;35.08;25.90;;;;;;;0.83;100.00;99668.22;5053484;28;20025;-62
2023/03/07 09:25:22;;;;;;;33.85;26.02;;;;;;;0.81;100.00;99679.94;5053206;28;20020;-62
2023/03/07 09:27:48;;;;;;;40.08;29.15;;;;;;;0.83;100.00;99673.28;5053375;28;20100;-61
2023/03/07 09:30:14;;;;;;;41.72;31.13;;;;;;;0.80;100.00;99683.25;5052736;28;20492;-61
2023/03/07 09:32:40;;;;;;;47.67;34.80;;;;;;;0.80;100.00;99686.69;5053521;28;20456;-62
2023/03/07 09:35:05;;;;;;;56.67;40.67;;;;;;;0.80;100.00;99683.25;5053396;28;20017;-61
2023/03/07 09:37:31;;;;;;;44.75;34.15;;;;;;;0.81;100.00;99693.50;5053043;28;20055;-62
2023/03/07 09:39:56;;;;;;;43.83;33.60;;;;;;;0.79;100.00;99689.16;5053233;28;20028;-61
2023/03/07 09:43:04;;;;;;;45.28;33.00;;;;;;;0.84;100.00;99695.31;5053754;28;20025;-62
2023/03/07 09:45:50;;;;;;;53.80;41.92;;;;;;;0.84;100.00;99684.28;5052627;28;20476;-62
2023/03/07 09:48:28;;;;;;;42.10;30.42;;;;;;;0.88;100.00;99682.00;5053138;28;20036;-61
2023/03/07 09:51:12;;;;;;;74.10;53.65;;;;;;;0.97;100.00;99681.59;5053173;28;20532;-61
2023/03/07 09:53:54;;;;;;;43.40;32.65;;;;;;;0.96;100.00;99684.91;5052271;28;20461;-61
2023/03/07 09:56:41;;;;;;;41.78;30.92;;;;;;;1.03;100.00;99689.47;5053386;28;20021;-62
2023/03/07 09:59:42;;;;;;;44.72;32.65;;;;;;;1.06;100.00;99686.22;5052104;28;20503;-63
2023/03/07 10:02:10;;;;;;;35.97;26.65;;;;;;;0.96;100.00;99684.91;5041190;28;20171;-61
2023/03/07 10:04:58;;;;;;;39.15;29.33;;;;;;;1.05;100.00;99679.41;5052930;28;20041;-61
2023/03/07 10:07:25;;;;;;;39.10;28.38;;;;;;;1.10;100.00;99683.06;5052314;28;20476;-62
2023/03/07 10:09:57;;;;;;;38.30;27.80;;;;;;;1.07;100.00;99682.88;5053044;28;20032;-62
2023/03/07 10:12:30;;;;;;;35.95;25.45;;;;;;;1.04;100.00;99683.59;5053116;28;20286;-62
2023/03/07 10:15:02;;;;;;;36.42;27.95;;;;;;;1.13;100.00;99673.03;5052798;28;20035;-62
2023/03/07 10:17:40;;;;;;;31.25;23.70;;;;;;;1.11;100.00;99674.63;5053058;28;20083;-62
2023/03/07 10:20:45;;;;;;;37.42;28.08;;;;;;;1.23;100.00;99671.84;5051633;28;20381;-62
2023/03/07 10:23:40;;;;;;;39.67;28.55;;;;;;;1.26;100.00;99677.91;5052632;28;20086;-62
2023/03/07 10:26:11;;;;;;;40.83;30.48;;;;;;;1.44;100.00;99687.19;5049367;28;20064;-62
2023/03/07 10:28:39;;;;;;;35.63;27.50;;;;;;;1.31;100.00;99689.13;5051889;28;20033;-62
2023/03/07 10:31:30;;;;;;;33.33;23.95;;;;;;;1.53;100.00;99682.56;5052591;28;20060;-62
2023/03/07 10:33:57;;;;;;;24.75;18.45;;;;;;;1.52;100.00;99678.25;5048307;28;20102;-62
2023/03/07 10:36:36;;;;;;;27.08;20.17;;;;;;;1.70;100.00;99685.00;5052870;28;20108;-62
2023/03/07 10:39:20;;;;;;;23.63;18.02;;;;;;;1.67;100.00;99678.13;5051889;28;20091;-61
2023/03/07 10:41:46;;;;;;;25.17;18.38;;;;;;;1.65;100.00;99679.72;5052024;28;20036;-62
2023/03/07 10:44:17;;;;;;;24.83;18.70;;;;;;;1.76;100.00;99677.69;5052414;28;20024;-61
2023/03/07 10:46:43;;;;;;;21.95;17.45;;;;;;;1.73;100.00;99674.97;5052666;28;20021;-62
2023/03/07 10:49:16;;;;;;;21.48;15.65;;;;;;;1.75;100.00;99678.47;5051427;28;20037;-61
2023/03/07 10:51:56;;;;;;;20.10;14.68;;;;;;;1.71;100.00;99680.00;5052482;28;20025;-61
2023/03/07 10:54:27;;;;;;;18.15;13.55;;;;;;;1.77;100.00;99681.94;5052339;28;20380;-62
2023/03/07 10:57:13;;;;;;;20.30;15.15;;;;;;;1.95;100.00;99684.44;5051826;28;20021;-61
2023/03/07 10:59:44;;;;;;;21.25;15.68;;;;;;;2.06;100.00;99682.41;5052445;28;20094;-61
2023/03/07 11:02:45;;;;;;;17.00;12.95;;;;;;;2.14;100.00;99681.97;5051353;28;20104;-61
2023/03/07 11:05:29;;;;;;;16.33;12.65;;;;;;;2.11;100.00;99686.03;5050812;28;20083;-62
2023/03/07 11:07:55;;;;;;;16.05;11.32;;;;;;;2.02;100.00;99685.63;5052200;28;20104;-61
2023/03/07 11:10:39;;;;;;;15.88;11.95;;;;;;;2.16;100.00;99681.13;5051562;28;20065;-62
2023/03/07 11:13:18;;;;;;;13.52;9.88;;;;;;;2.05;100.00;99683.22;5052143;28;20068;-61
2023/03/07 11:15:44;;;;;;;13.07;9.98;;;;;;;1.98;100.00;99684.59;5051681;28;20040;-61
2023/03/07 11:18:36;;;;;;;13.07;8.98;;;;;;;1.95;100.00;99680.25;5051983;28;20021;-62
2023/03/07 11:21:02;;;;;;;16.83;11.98;;;;;;;1.81;100.00;99677.06;5051987;28;20048;-61
2023/03/07 11:23:30;;;;;;;21.08;14.35;;;;;;;1.81;100.00;99683.84;5051624;28;20419;-62